Terminal Aerodrome Forecast
Issued by NWS Nashville, TN

Current Version | Previous Version | Text Only | Print | Product List | Glossary Off
Versions: 1 2 3 4 5 6 7 8 9 10 11 12 13 14 15 16 17 18 19 20 21 22 23 24 25 26 27 28 29 30 31 32 33 34

071
FTUS44 KOHX 171720
TAFCSV
TAF
KCSV 171720Z 1718/1818 22010KT P6SM VCSH SCT008 OVC025
      TEMPO 1718/1722 4SM -SHRA BKN008 OVC015
     FM172200 24009KT 4SM -SHRA BR OVC015
     FM180300 30007KT 3SM BR OVC005=

USA.gov is the U.S. government's official web portal to all federal, state and local government web resources and services.